createdAt,value
2018-11-05T00:01:35.055Z,22.60
2018-11-05T00:04:03.157Z,22.60
2018-11-05T00:06:31.232Z,22.60
2018-11-05T00:08:59.313Z,22.60
2018-11-05T00:11:27.471Z,22.60
2018-11-05T00:13:55.612Z,22.60
2018-11-05T00:16:23.781Z,22.60
2018-11-05T00:18:52.006Z,22.60
2018-11-05T00:21:20.637Z,22.60
2018-11-05T00:23:48.769Z,22.60
2018-11-05T00:26:17.141Z,22.60
2018-11-05T00:28:45.319Z,22.60
2018-11-05T00:31:13.542Z,22.60
2018-11-05T00:33:41.746Z,22.60
2018-11-05T00:36:09.896Z,22.60
2018-11-05T00:38:37.989Z,22.60
2018-11-05T00:41:06.493Z,22.60
2018-11-05T00:43:34.728Z,22.60
2018-11-05T00:46:02.838Z,22.60
2018-11-05T00:48:31.188Z,22.60
2018-11-05T00:50:59.310Z,22.60
2018-11-05T00:53:27.460Z,22.60
2018-11-05T00:55:55.705Z,22.60
2018-11-05T00:58:23.833Z,22.70
2018-11-05T01:00:52.033Z,22.70
2018-11-05T01:03:20.124Z,22.60
2018-11-05T01:05:48.224Z,22.70
2018-11-05T01:08:16.365Z,22.70
2018-11-05T01:10:44.472Z,22.70
2018-11-05T01:13:12.595Z,22.70
2018-11-05T01:15:40.718Z,22.70
2018-11-05T01:18:09.262Z,22.70
2018-11-05T01:20:37.367Z,22.70
2018-11-05T01:23:05.512Z,22.70
2018-11-05T01:25:33.643Z,22.70
2018-11-05T01:28:01.743Z,22.70
2018-11-05T01:30:30.073Z,22.70
2018-11-05T01:32:58.293Z,22.70
2018-11-05T01:35:26.425Z,22.70
2018-11-05T01:37:54.608Z,22.70
2018-11-05T01:40:22.817Z,22.70
2018-11-05T01:42:50.947Z,22.70
2018-11-05T01:45:19.176Z,22.70
2018-11-05T01:47:47.331Z,22.70
2018-11-05T01:50:16.405Z,22.80
2018-11-05T01:52:44.849Z,22.80
2018-11-05T01:55:13.036Z,22.70
2018-11-05T01:57:41.567Z,22.80
2018-11-05T02:00:14.672Z,22.80
2018-11-05T02:02:43.270Z,22.80
2018-11-05T02:05:11.721Z,22.80
2018-11-05T02:07:40.579Z,22.80
2018-11-05T02:10:10.994Z,22.80
2018-11-05T02:12:39.213Z,22.80
2018-11-05T02:15:07.749Z,22.80
2018-11-05T02:17:35.885Z,22.80
2018-11-05T02:20:04.509Z,22.80
2018-11-05T02:22:32.636Z,22.80
2018-11-05T02:25:00.841Z,22.80
2018-11-05T02:27:28.978Z,22.80
2018-11-05T02:29:57.354Z,22.90
2018-11-05T02:32:25.461Z,22.80
2018-11-05T02:34:53.714Z,22.90
2018-11-05T02:37:22.115Z,22.90
2018-11-05T02:39:50.251Z,22.90
2018-11-05T02:42:18.349Z,22.90
2018-11-05T02:44:46.441Z,22.90
2018-11-05T02:47:14.515Z,22.90
2018-11-05T02:49:42.627Z,22.90
2018-11-05T02:52:10.737Z,22.90
2018-11-05T02:54:38.893Z,22.90
2018-11-05T02:57:06.989Z,23.00
2018-11-05T02:59:35.168Z,22.90
2018-11-05T03:02:03.412Z,23.00
2018-11-05T03:04:31.634Z,23.00
2018-11-05T03:06:59.925Z,23.00
2018-11-05T03:09:28.044Z,23.00
2018-11-05T03:11:56.186Z,23.00
2018-11-05T03:14:24.346Z,23.00
2018-11-05T03:16:52.589Z,23.00
2018-11-05T03:19:20.686Z,23.00
2018-11-05T03:21:48.808Z,23.00
2018-11-05T03:24:16.981Z,23.00
2018-11-05T03:26:45.106Z,23.00
2018-11-05T03:29:13.209Z,23.00
2018-11-05T03:31:41.374Z,23.00
2018-11-05T03:34:09.509Z,23.10
2018-11-05T03:36:37.618Z,23.00
2018-11-05T03:39:08.385Z,23.00
2018-11-05T03:41:36.547Z,23.00
2018-11-05T03:44:05.165Z,23.00
2018-11-05T03:46:33.537Z,23.00
2018-11-05T03:49:01.622Z,23.10
2018-11-05T03:51:29.797Z,23.10
2018-11-05T03:53:57.900Z,23.10
2018-11-05T03:56:26.038Z,23.00
2018-11-05T03:58:54.538Z,23.10
2018-11-05T04:01:22.669Z,23.10
2018-11-05T04:03:50.756Z,23.10
2018-11-05T04:06:18.854Z,23.10
2018-11-05T04:08:47.014Z,23.10
2018-11-05T04:11:15.156Z,23.10
2018-11-05T04:13:43.298Z,23.10
2018-11-05T04:16:11.526Z,23.10
2018-11-05T04:18:39.913Z,23.10
2018-11-05T04:21:08.018Z,23.10
2018-11-05T04:23:36.121Z,23.10
2018-11-05T04:26:04.232Z,23.10
2018-11-05T04:28:32.334Z,23.10
2018-11-05T04:31:00.516Z,23.10
2018-11-05T04:33:28.601Z,23.10
2018-11-05T04:35:56.872Z,23.10
2018-11-05T04:38:24.986Z,23.10
2018-11-05T04:40:53.112Z,23.10
2018-11-05T04:43:21.217Z,23.10
2018-11-05T04:45:49.445Z,23.10
2018-11-05T04:48:17.529Z,23.10
2018-11-05T04:50:45.740Z,23.10
2018-11-05T04:53:13.997Z,23.20
2018-11-05T04:55:42.125Z,23.10
2018-11-05T04:58:10.385Z,23.10
2018-11-05T05:00:38.520Z,23.20
2018-11-05T05:03:06.750Z,23.10
2018-11-05T05:05:34.869Z,23.10
2018-11-05T05:08:03.379Z,23.20
2018-11-05T05:10:31.601Z,23.10
2018-11-05T05:13:00.072Z,23.10
2018-11-05T05:15:29.902Z,23.10
2018-11-05T05:17:58.068Z,23.20
2018-11-05T05:20:26.929Z,23.10
2018-11-05T05:22:55.240Z,23.10
2018-11-05T05:25:23.249Z,23.10
2018-11-05T05:27:51.556Z,23.10
2018-11-05T05:30:20.113Z,23.10
2018-11-05T05:32:48.967Z,23.10
2018-11-05T05:35:18.074Z,23.10
2018-11-05T05:37:46.269Z,23.10
2018-11-05T05:40:14.425Z,23.10
2018-11-05T05:42:42.685Z,23.10
2018-11-05T05:45:11.791Z,23.10
2018-11-05T05:47:40.160Z,23.10
2018-11-05T05:50:12.092Z,23.10
2018-11-05T05:52:40.697Z,23.10
2018-11-05T05:55:09.304Z,23.10
2018-11-05T05:57:37.616Z,23.10
2018-11-05T06:00:08.114Z,23.10
2018-11-05T06:02:36.460Z,23.10
2018-11-05T06:05:06.094Z,23.10
2018-11-05T06:07:34.349Z,23.10
2018-11-05T06:10:02.521Z,23.10
2018-11-05T06:12:30.823Z,23.10
2018-11-05T06:14:59.632Z,23.10
2018-11-05T06:17:27.829Z,23.10
2018-11-05T06:19:56.238Z,23.10
2018-11-05T06:22:24.385Z,23.10
2018-11-05T06:24:52.572Z,23.10
2018-11-05T06:27:20.862Z,23.10
2018-11-05T06:29:49.169Z,23.10
2018-11-05T06:32:17.301Z,23.10
2018-11-05T06:34:45.522Z,23.00
2018-11-05T06:37:13.821Z,23.10
2018-11-05T06:39:41.936Z,23.10
2018-11-05T06:42:10.045Z,23.10
2018-11-05T06:44:38.196Z,23.10
2018-11-05T06:47:06.311Z,23.10
2018-11-05T06:49:34.552Z,23.10
2018-11-05T06:52:02.777Z,23.10
2018-11-05T06:54:31.064Z,23.10
2018-11-05T06:56:59.165Z,23.10
2018-11-05T06:59:27.333Z,23.10
2018-11-05T07:01:55.537Z,23.10
2018-11-05T07:04:23.797Z,23.10
2018-11-05T07:06:51.985Z,23.10
2018-11-05T07:09:20.253Z,23.10
2018-11-05T07:11:48.515Z,23.10
2018-11-05T07:14:16.876Z,23.10
2018-11-05T07:16:45.292Z,23.10
2018-11-05T07:19:13.855Z,23.10
2018-11-05T07:21:41.909Z,23.10
2018-11-05T07:24:10.094Z,23.10
2018-11-05T07:26:38.403Z,23.00
2018-11-05T07:29:06.752Z,23.10
2018-11-05T07:31:35.025Z,23.10
2018-11-05T07:34:03.360Z,23.00
2018-11-05T07:36:31.299Z,23.00
2018-11-05T07:38:59.441Z,23.00
2018-11-05T07:41:27.641Z,23.00
2018-11-05T07:43:55.884Z,23.00
2018-11-05T07:46:24.093Z,23.00
2018-11-05T07:48:52.268Z,23.00
2018-11-05T07:51:20.394Z,23.00
2018-11-05T07:53:48.760Z,23.00
2018-11-05T07:56:16.821Z,23.00
2018-11-05T07:58:45.053Z,23.00
2018-11-05T08:01:13.226Z,23.00
2018-11-05T08:03:41.397Z,23.00
2018-11-05T08:06:09.529Z,23.00
2018-11-05T08:08:37.744Z,23.00
2018-11-05T08:11:05.886Z,23.00
2018-11-05T08:13:33.993Z,23.00
2018-11-05T08:16:02.082Z,23.00
2018-11-05T08:18:30.285Z,23.00
2018-11-05T08:20:58.546Z,23.00
2018-11-05T08:23:26.686Z,23.00
2018-11-05T08:25:54.827Z,23.00
2018-11-05T08:28:23.591Z,23.00
2018-11-05T08:30:51.814Z,23.00
2018-11-05T08:33:20.129Z,23.00
2018-11-05T08:35:48.227Z,23.00
2018-11-05T08:38:16.364Z,23.00
2018-11-05T08:40:44.548Z,23.00
2018-11-05T08:43:12.809Z,23.00
2018-11-05T08:45:40.989Z,23.00
2018-11-05T08:48:09.118Z,23.00
2018-11-05T08:50:37.405Z,23.00
2018-11-05T08:53:05.600Z,22.90
2018-11-05T08:55:33.773Z,23.00
2018-11-05T08:58:01.940Z,22.90
2018-11-05T09:00:35.461Z,22.90
2018-11-05T09:03:03.621Z,23.00
2018-11-05T09:05:31.821Z,23.00
2018-11-05T09:08:00.059Z,23.00
2018-11-05T09:10:29.667Z,22.90
2018-11-05T09:12:57.828Z,22.90
2018-11-05T09:15:26.031Z,22.90
2018-11-05T09:17:54.280Z,22.90
2018-11-05T09:20:22.457Z,22.90
2018-11-05T09:22:51.796Z,22.90
2018-11-05T09:25:19.970Z,23.00
2018-11-05T09:27:48.218Z,22.90
2018-11-05T09:30:17.627Z,22.90
2018-11-05T09:32:46.932Z,22.90
2018-11-05T09:35:15.364Z,22.90
2018-11-05T09:37:43.497Z,23.00
2018-11-05T09:40:14.215Z,22.90
2018-11-05T09:42:43.037Z,23.00
2018-11-05T09:45:14.052Z,22.90
2018-11-05T09:47:42.782Z,22.90
2018-11-05T09:50:11.484Z,22.90
2018-11-05T09:52:39.759Z,22.90
2018-11-05T09:55:08.552Z,22.90
2018-11-05T09:57:36.750Z,22.90
2018-11-05T10:00:07.081Z,22.90
2018-11-05T10:02:40.847Z,22.90
2018-11-05T10:05:09.157Z,22.90
2018-11-05T10:07:37.255Z,22.90
2018-11-05T10:10:06.872Z,22.90
2018-11-05T10:12:35.013Z,22.90
2018-11-05T10:15:03.224Z,22.90
2018-11-05T10:17:31.349Z,22.90
2018-11-05T10:19:59.487Z,22.90
2018-11-05T10:22:27.700Z,22.90
2018-11-05T10:24:56.319Z,22.90
2018-11-05T10:27:24.573Z,22.90
2018-11-05T10:29:52.796Z,22.80
2018-11-05T10:32:21.178Z,22.90
2018-11-05T10:34:49.289Z,22.90
2018-11-05T10:37:17.626Z,22.90
2018-11-05T10:39:46.106Z,22.90
2018-11-05T10:42:14.319Z,22.80
2018-11-05T10:44:42.497Z,22.90
2018-11-05T10:47:10.639Z,22.80
2018-11-05T10:49:38.791Z,22.80
2018-11-05T10:52:07.110Z,22.90
2018-11-05T10:54:35.122Z,22.90
2018-11-05T10:57:03.300Z,22.90
2018-11-05T10:59:31.456Z,22.90
2018-11-05T11:02:05.173Z,22.90
2018-11-05T11:04:34.424Z,22.90
2018-11-05T11:07:03.508Z,22.90
2018-11-05T11:09:31.700Z,22.90
2018-11-05T11:12:00.472Z,22.80
2018-11-05T11:14:29.078Z,22.80
2018-11-05T11:16:57.425Z,22.80
2018-11-05T11:19:25.760Z,22.80
2018-11-05T11:21:54.018Z,22.80
2018-11-05T11:24:22.109Z,22.80
2018-11-05T11:26:50.363Z,22.80
2018-11-05T11:29:18.676Z,22.80
2018-11-05T11:31:46.636Z,22.80
2018-11-05T11:34:14.756Z,22.80
2018-11-05T11:36:43.076Z,22.80
2018-11-05T11:39:12.233Z,22.80
2018-11-05T11:41:40.632Z,22.80
2018-11-05T11:44:08.908Z,22.80
2018-11-05T11:46:37.709Z,22.80
2018-11-05T11:49:06.463Z,22.80
2018-11-05T11:51:34.604Z,22.80
2018-11-05T11:54:02.749Z,22.80
2018-11-05T11:56:30.934Z,22.80
2018-11-05T11:58:59.731Z,22.80
2018-11-05T12:01:27.932Z,22.80
2018-11-05T12:03:56.163Z,22.80
2018-11-05T12:06:24.365Z,22.80
2018-11-05T12:08:52.492Z,22.80
2018-11-05T12:11:20.794Z,22.80
2018-11-05T12:13:49.054Z,22.80
2018-11-05T12:16:17.259Z,22.80
2018-11-05T12:18:45.373Z,22.80
2018-11-05T12:21:13.504Z,22.80
2018-11-05T12:23:41.642Z,22.80
2018-11-05T12:26:09.807Z,22.80
2018-11-05T12:28:37.978Z,22.80
2018-11-05T12:31:06.197Z,22.70
2018-11-05T12:33:34.408Z,22.80
2018-11-05T12:36:02.661Z,22.80
2018-11-05T12:38:31.755Z,22.70
2018-11-05T12:41:00.124Z,22.70
2018-11-05T12:43:28.265Z,22.80
2018-11-05T12:45:56.357Z,22.70
2018-11-05T12:48:24.578Z,22.70
2018-11-05T12:50:52.734Z,22.70
2018-11-05T12:53:20.909Z,22.70
2018-11-05T12:55:49.546Z,22.70
2018-11-05T12:58:17.672Z,22.70
2018-11-05T13:00:45.837Z,22.70
2018-11-05T13:03:13.944Z,22.70
2018-11-05T13:05:42.145Z,22.70
2018-11-05T13:08:10.442Z,22.70
2018-11-05T13:10:38.544Z,22.70
2018-11-05T13:13:06.788Z,22.70
2018-11-05T13:15:35.014Z,22.70
2018-11-05T13:18:03.657Z,22.70
2018-11-05T13:20:31.941Z,22.70
2018-11-05T13:23:00.536Z,22.70
2018-11-05T13:25:28.657Z,22.70
2018-11-05T13:27:56.916Z,22.70
2018-11-05T13:30:25.201Z,22.70
2018-11-05T13:32:53.413Z,22.70
2018-11-05T13:35:22.066Z,22.70
2018-11-05T13:37:50.763Z,22.70
2018-11-05T13:40:19.606Z,22.70
2018-11-05T13:42:48.337Z,22.70
2018-11-05T13:45:16.960Z,22.70
2018-11-05T13:47:45.985Z,22.70
2018-11-05T13:50:14.192Z,22.70
2018-11-05T13:52:42.392Z,22.70
2018-11-05T13:55:12.514Z,22.70
2018-11-05T13:57:41.669Z,22.70
2018-11-05T14:00:11.638Z,22.70
2018-11-05T14:02:40.375Z,22.70
2018-11-05T14:05:09.093Z,22.70
2018-11-05T14:07:37.462Z,22.70
2018-11-05T14:10:08.730Z,22.70
2018-11-05T14:12:36.918Z,22.70
2018-11-05T14:15:05.895Z,22.60
2018-11-05T14:17:34.185Z,22.60
2018-11-05T14:20:02.938Z,22.60
2018-11-05T14:22:31.994Z,22.60
2018-11-05T14:25:00.651Z,22.60
2018-11-05T14:27:28.955Z,22.60
2018-11-05T14:29:57.349Z,22.60
2018-11-05T14:32:25.237Z,22.60
2018-11-05T14:34:53.434Z,22.60
2018-11-05T14:37:21.761Z,22.60
2018-11-05T14:39:49.893Z,22.60
2018-11-05T14:42:18.157Z,22.60
2018-11-05T14:44:46.388Z,22.60
2018-11-05T14:47:14.493Z,22.60
2018-11-05T14:49:42.659Z,22.60
2018-11-05T14:52:10.910Z,22.60
2018-11-05T14:54:39.141Z,22.50
2018-11-05T14:57:07.595Z,22.60
2018-11-05T14:59:35.968Z,22.60
2018-11-05T15:02:09.523Z,22.60
2018-11-05T15:04:37.839Z,22.60
2018-11-05T15:07:06.234Z,22.60
2018-11-05T15:09:34.661Z,22.60
2018-11-05T15:12:03.189Z,22.60
2018-11-05T15:14:31.305Z,22.60
2018-11-05T15:16:59.617Z,22.60
2018-11-05T15:19:28.204Z,22.60
2018-11-05T15:21:56.218Z,22.60
2018-11-05T15:24:24.388Z,22.60
2018-11-05T15:26:52.676Z,22.60
2018-11-05T15:29:20.840Z,22.50
2018-11-05T15:31:49.027Z,22.50
2018-11-05T15:34:17.234Z,22.50
2018-11-05T15:36:45.380Z,22.50
2018-11-05T15:39:13.553Z,22.50
2018-11-05T15:41:41.745Z,22.50
2018-11-05T15:44:09.904Z,22.50
2018-11-05T15:46:38.191Z,22.50
2018-11-05T15:49:06.506Z,22.50
2018-11-05T15:51:35.011Z,22.50
2018-11-05T15:54:05.592Z,22.50
2018-11-05T15:56:33.802Z,22.50
2018-11-05T15:59:02.091Z,22.50
2018-11-05T16:01:31.988Z,22.50
2018-11-05T16:04:00.525Z,22.50
2018-11-05T16:06:28.846Z,22.50
2018-11-05T16:08:57.320Z,22.50
2018-11-05T16:11:28.934Z,22.50
2018-11-05T16:13:58.479Z,22.40
2018-11-05T16:16:26.601Z,22.50
2018-11-05T16:18:55.654Z,22.40
2018-11-05T16:21:23.989Z,22.40
2018-11-05T16:23:57.127Z,22.40
2018-11-05T16:26:25.337Z,22.40
2018-11-05T16:28:55.973Z,22.40
2018-11-05T16:31:24.095Z,22.40
2018-11-05T16:33:53.191Z,22.40
2018-11-05T16:36:22.429Z,22.40
2018-11-05T16:38:50.713Z,22.40
2018-11-05T16:41:19.066Z,22.40
2018-11-05T16:43:49.021Z,22.40
2018-11-05T16:46:17.212Z,22.40
2018-11-05T16:48:45.425Z,22.40
2018-11-05T16:51:13.571Z,22.40
2018-11-05T16:53:41.818Z,22.40
2018-11-05T16:56:10.081Z,22.40
2018-11-05T17:01:17.884Z,22.40
2018-11-05T17:03:46.158Z,22.40
2018-11-05T17:06:14.358Z,22.40
2018-11-05T17:08:42.529Z,22.40
2018-11-05T17:11:11.426Z,22.40
2018-11-05T17:13:40.082Z,22.40
2018-11-05T17:16:08.265Z,22.40
2018-11-05T17:18:37.040Z,22.40
2018-11-05T17:21:05.873Z,22.40
2018-11-05T17:23:34.066Z,22.40
2018-11-05T17:26:04.113Z,22.40
2018-11-05T17:28:33.144Z,22.40
2018-11-05T17:31:01.475Z,22.40
2018-11-05T17:33:30.255Z,22.40
2018-11-05T17:35:59.323Z,22.40
2018-11-05T17:38:27.980Z,22.40
2018-11-05T17:40:57.044Z,22.40
2018-11-05T17:43:26.521Z,22.40
2018-11-05T17:45:55.526Z,22.30
2018-11-05T17:48:23.820Z,22.40
2018-11-05T17:50:52.182Z,22.30
2018-11-05T17:53:20.623Z,22.30
2018-11-05T17:55:48.766Z,22.30
2018-11-05T17:58:16.974Z,22.30
2018-11-05T18:00:45.097Z,22.30
2018-11-05T18:03:13.237Z,22.30
2018-11-05T18:05:41.410Z,22.30
2018-11-05T18:08:09.596Z,22.30
2018-11-05T18:10:37.806Z,22.30
2018-11-05T18:13:06.065Z,22.30
2018-11-05T18:15:34.347Z,22.30
2018-11-05T18:18:02.472Z,22.30
2018-11-05T18:20:30.677Z,22.30
2018-11-05T18:22:58.847Z,22.30
2018-11-05T18:25:27.178Z,22.30
2018-11-05T18:27:55.322Z,22.30
2018-11-05T18:30:23.462Z,22.30
2018-11-05T18:32:51.607Z,22.30
2018-11-05T18:35:19.781Z,22.30
2018-11-05T18:37:49.595Z,22.30
2018-11-05T18:40:17.751Z,22.30
2018-11-05T18:42:46.182Z,22.30
2018-11-05T18:45:15.038Z,22.30
2018-11-05T18:47:43.329Z,22.30
2018-11-05T18:50:12.930Z,22.30
2018-11-05T18:52:41.283Z,22.30
2018-11-05T18:55:10.610Z,22.30
2018-11-05T18:57:39.058Z,22.30
2018-11-05T19:00:15.980Z,22.30
2018-11-05T19:02:44.314Z,22.30
2018-11-05T19:05:12.405Z,22.30
2018-11-05T19:07:40.680Z,22.30
2018-11-05T19:10:08.989Z,22.30
2018-11-05T19:12:37.321Z,22.30
2018-11-05T19:15:06.936Z,22.30
2018-11-05T19:17:35.292Z,22.30
2018-11-05T19:20:03.865Z,22.30
2018-11-05T19:22:32.633Z,22.30
2018-11-05T19:25:00.964Z,22.30
2018-11-05T19:27:29.284Z,22.30
2018-11-05T19:29:57.526Z,22.30
2018-11-05T19:32:27.165Z,22.30
2018-11-05T19:34:55.668Z,22.20
2018-11-05T19:37:23.992Z,22.20
2018-11-05T19:39:54.674Z,22.20
2018-11-05T19:42:21.811Z,22.20
2018-11-05T19:44:50.208Z,22.20
2018-11-05T19:47:19.650Z,22.20
2018-11-05T19:49:48.001Z,22.20
2018-11-05T19:52:16.877Z,22.20
2018-11-05T19:54:45.159Z,22.20
2018-11-05T19:57:13.494Z,22.20
2018-11-05T19:59:41.651Z,22.20
2018-11-05T20:02:11.682Z,22.20
2018-11-05T20:04:39.987Z,22.20
2018-11-05T20:07:08.433Z,22.20
2018-11-05T20:09:36.673Z,22.20
2018-11-05T20:12:08.713Z,22.20
2018-11-05T20:14:37.097Z,22.10
2018-11-05T20:17:05.492Z,22.10
2018-11-05T20:19:34.248Z,22.10
2018-11-05T20:22:02.513Z,22.10
2018-11-05T20:24:30.817Z,22.10
2018-11-05T20:26:59.159Z,22.10
2018-11-05T20:29:27.387Z,22.10
2018-11-05T20:31:55.988Z,22.10
2018-11-05T20:34:24.101Z,22.10
2018-11-05T20:36:53.410Z,22.10
2018-11-05T20:39:22.999Z,22.20
2018-11-05T20:41:51.430Z,22.20
2018-11-05T20:44:19.658Z,22.10
2018-11-05T20:46:51.713Z,22.10
2018-11-05T20:49:20.755Z,22.20
2018-11-05T20:51:48.909Z,22.10
2018-11-05T20:54:17.134Z,22.10
2018-11-05T20:56:46.149Z,22.10
2018-11-05T20:59:14.291Z,22.10
2018-11-05T21:01:42.794Z,22.20
2018-11-05T21:04:10.960Z,22.10
2018-11-05T21:06:39.095Z,22.10
2018-11-05T21:09:08.773Z,22.10
2018-11-05T21:11:37.016Z,22.10
2018-11-05T21:14:05.181Z,22.10
2018-11-05T21:16:33.465Z,22.10
2018-11-05T21:19:02.469Z,22.10
2018-11-05T21:21:30.883Z,22.10
2018-11-05T21:23:59.758Z,22.10
2018-11-05T21:26:28.229Z,22.10
2018-11-05T21:28:57.052Z,22.10
2018-11-05T21:31:25.876Z,22.10
2018-11-05T21:33:54.497Z,22.10
2018-11-05T21:36:23.700Z,22.10
2018-11-05T21:38:52.154Z,22.10
2018-11-05T21:41:20.709Z,22.00
2018-11-05T21:43:50.025Z,22.10
2018-11-05T21:46:18.812Z,22.00
2018-11-05T21:48:48.221Z,22.00
2018-11-05T21:51:16.832Z,22.00
2018-11-05T21:53:46.874Z,22.00
2018-11-05T21:56:15.598Z,22.00
2018-11-05T21:58:44.741Z,22.00
2018-11-05T22:01:13.302Z,22.00
2018-11-05T22:03:41.535Z,22.00
2018-11-05T22:06:10.732Z,22.00
2018-11-05T22:08:39.665Z,22.00
2018-11-05T22:11:08.977Z,22.00
2018-11-05T22:13:38.634Z,22.00
2018-11-05T22:16:08.723Z,22.00
2018-11-05T22:18:39.676Z,22.00
2018-11-05T22:21:08.363Z,22.00
2018-11-05T22:23:36.820Z,22.00
2018-11-05T22:26:06.123Z,22.00
2018-11-05T22:28:34.691Z,22.00
2018-11-05T22:31:09.108Z,22.00
2018-11-05T22:33:43.334Z,22.00
2018-11-05T22:36:14.216Z,22.00
2018-11-05T22:38:44.330Z,22.00
2018-11-05T22:41:13.025Z,22.00
2018-11-05T22:43:43.399Z,22.00
2018-11-05T22:46:14.243Z,22.00
2018-11-05T22:48:43.114Z,22.00
2018-11-05T22:51:12.512Z,22.00
2018-11-05T22:53:43.504Z,22.00
2018-11-05T22:56:13.267Z,22.00
2018-11-05T22:58:42.156Z,22.00
2018-11-05T23:01:15.410Z,22.00
2018-11-05T23:03:50.656Z,22.00
2018-11-05T23:06:21.282Z,22.00
2018-11-05T23:08:54.303Z,22.00
2018-11-05T23:11:26.829Z,22.00
2018-11-05T23:13:57.390Z,22.00
2018-11-05T23:16:29.352Z,22.00
2018-11-05T23:18:58.013Z,22.00
2018-11-05T23:21:49.460Z,22.00
2018-11-05T23:24:18.423Z,21.90
2018-11-05T23:27:08.187Z,21.90
2018-11-05T23:29:37.277Z,21.90
2018-11-05T23:32:06.425Z,21.90
2018-11-05T23:35:10.887Z,21.90
2018-11-05T23:37:47.533Z,21.90
2018-11-05T23:40:17.322Z,21.90
2018-11-05T23:42:46.882Z,21.90
2018-11-05T23:45:16.702Z,21.90
2018-11-05T23:47:45.631Z,21.90
2018-11-05T23:50:14.414Z,21.90
2018-11-05T23:52:43.024Z,21.90
2018-11-05T23:55:12.347Z,21.90
2018-11-05T23:57:41.333Z,21.90
